Details From KLDJ - LINDEN
To KLDJ - LINDEN
Flight Number -
Tags None
Created
Modified
Stats Distance 50 nm / 93 km
Max Altitude 23 ft / 7 m
Waypoints 8
Social Downloads 39
Likes 0
Share

Download

Looking for another format? Having issues loading an existing format? Contact us
Advertisement - Login to hide

Notes

None

Route

KLDJ NJ83 NJ77 KJRB 4NY3 KTEB 7NJ8 KLDJ

ID Type Via Altitude (ft/m) Position (lat/lon) Dist (leg/tot) Name
O KLDJ APT - 23 / 7 40.61745 / -74.24459 - / 0 nm LINDEN
NJ83 APT - 8 / 2 40.60010 / -74.19958 2 / 2 nm
NJ77 APT - 10 / 3 40.65010 / -74.08292 6 / 8 nm
KJRB APT - 7 / 2 40.70121 / -74.00903 4 / 12 nm
4NY3 APT - 20 / 6 40.76927 / -73.85014 8 / 21 nm
KTEB APT - 9 / 3 40.85025 / -74.06094 10 / 32 nm Teterboro
7NJ8 APT - 23 / 7 40.61288 / -74.26820 17 / 49 nm
O KLDJ APT - 23 / 7 40.61745 / -74.24459 1 / 50 nm LINDEN

Altitude Profile

Advertisement - Login to hide

KLDJ

Details ICAO KLDJ (LDJ)
Name Linden
Region United States
Timezone America/New_York (UTC-4.0)
Stats Elevation 21 ft / 6 m (AMSL)
Location 40.617500° -74.244600°
Runways 1
Magnetic Variation 12.603° W

METAR

KLDJ 130235Z AUTO 23003KT 10SM CLR 14/05 A2952 RMK AO2 T01380054

Decode

TAF

Not found

Departure Runways

ID Width Length Bearing (true/mag) Surface Threshold Overrun Markings Lighting
09 98 ft / 30 m 4,135 ft / 1,260 m 75.63° / 88.23° ASPHALT 469 ft / 143 m 190 ft / 58 m APP EDGE THRESHOLD REIL-OMNI
27 98 ft / 30 m 4,135 ft / 1,260 m 255.64° / 268.24° ASPHALT 548 ft / 167 m 194 ft / 59 m VISUAL EDGE THRESHOLD REIL-OMNI

KLDJ

Details ICAO KLDJ (LDJ)
Name Linden
Region United States
Timezone America/New_York (UTC-4.0)
Stats Elevation 21 ft / 6 m (AMSL)
Location 40.617500° -74.244600°
Runways 1
Magnetic Variation 12.603° W

METAR

KLDJ 130235Z AUTO 23003KT 10SM CLR 14/05 A2952 RMK AO2 T01380054

Decode

TAF

Not found

Destination Runways

ID Width Length Bearing (true/mag) Surface Threshold Overrun Markings Lighting
09 98 ft / 30 m 4,135 ft / 1,260 m 75.63° / 88.23° ASPHALT 469 ft / 143 m 190 ft / 58 m APP EDGE THRESHOLD REIL-OMNI
27 98 ft / 30 m 4,135 ft / 1,260 m 255.64° / 268.24° ASPHALT 548 ft / 167 m 194 ft / 59 m VISUAL EDGE THRESHOLD REIL-OMNI